地図

経路データ

SID SEASON NUMBER BASIN SUBBASIN NAME ISO_TIME NATURE LAT LON WMO_WIND WMO_PRES WMO_AGENCY TRACK_TYPE DIST2LAND LANDFALL IFLAG USA_AGENCY USA_ATCF_ID USA_LAT USA_LON USA_RECORD USA_STATUS USA_WIND USA_PRES USA_SSHS USA_R34_NE USA_R34_SE USA_R34_SW USA_R34_NW USA_R50_NE USA_R50_SE USA_R50_SW USA_R50_NW USA_R64_NE USA_R64_SE USA_R64_SW USA_R64_NW USA_POCI USA_ROCI USA_RMW USA_EYE TOKYO_LAT TOKYO_LON TOKYO_GRADE TOKYO_WIND TOKYO_PRES TOKYO_R50_DIR TOKYO_R50_LONG TOKYO_R50_SHORT TOKYO_R30_DIR TOKYO_R30_LONG TOKYO_R30_SHORT TOKYO_LAND CMA_LAT CMA_LON CMA_CAT CMA_WIND CMA_PRES HKO_LAT HKO_LON HKO_CAT HKO_WIND HKO_PRES NEWDELHI_LAT NEWDELHI_LON NEWDELHI_GRADE NEWDELHI_WIND NEWDELHI_PRES NEWDELHI_CI NEWDELHI_DP NEWDELHI_POCI REUNION_LAT REUNION_LON REUNION_TYPE REUNION_WIND REUNION_PRES REUNION_TNUM REUNION_CI REUNION_RMW REUNION_R34_NE REUNION_R34_SE REUNION_R34_SW REUNION_R34_NW REUNION_R50_NE REUNION_R50_SE REUNION_R50_SW REUNION_R50_NW REUNION_R64_NE REUNION_R64_SE REUNION_R64_SW REUNION_R64_NW BOM_LAT BOM_LON BOM_TYPE BOM_WIND BOM_PRES BOM_TNUM BOM_CI BOM_RMW BOM_R34_NE BOM_R34_SE BOM_R34_SW BOM_R34_NW BOM_R50_NE BOM_R50_SE BOM_R50_SW BOM_R50_NW BOM_R64_NE BOM_R64_SE BOM_R64_SW BOM_R64_NW BOM_ROCI BOM_POCI BOM_EYE BOM_POS_METHOD BOM_PRES_METHOD NADI_LAT NADI_LON NADI_CAT NADI_WIND NADI_PRES WELLINGTON_LAT WELLINGTON_LON WELLINGTON_WIND WELLINGTON_PRES DS824_LAT DS824_LON DS824_STAGE DS824_WIND DS824_PRES TD9636_LAT TD9636_LON TD9636_STAGE TD9636_WIND TD9636_PRES TD9635_LAT TD9635_LON TD9635_WIND TD9635_PRES TD9635_ROCI NEUMANN_LAT NEUMANN_LON NEUMANN_CLASS NEUMANN_WIND NEUMANN_PRES MLC_LAT MLC_LON MLC_CLASS MLC_WIND MLC_PRES USA_GUST BOM_GUST BOM_GUST_PER REUNION_GUST REUNION_GUST_PER USA_SEAHGT USA_SEARAD_NE USA_SEARAD_SE USA_SEARAD_SW USA_SEARAD_NW STORM_SPEED STORM_DIR
1992188N07156 1992 47 WP MM ELI 1992-07-05 18:00:00 NR 7.20000 155.900 main 1240 1227 O_____________ jtwc_wp WP051992 7.20000 155.900 15 -1 15 287
1992188N07156 1992 47 WP MM ELI 1992-07-05 21:00:00 NR 7.41022 155.200 main 1228 1218 P_____________ WP051992 7.41022 155.200 15 -1 14 286
1992188N07156 1992 47 WP MM ELI 1992-07-06 00:00:00 NR 7.60000 154.500 main 1221 1209 O_____________ jtwc_wp WP051992 7.60000 154.500 15 -1 14 284
1992188N07156 1992 47 WP MM ELI 1992-07-06 03:00:00 NR 7.75739 153.800 main 1219 1208 P_____________ WP051992 7.75739 153.800 15 -1 14 282
1992188N07156 1992 47 WP MM ELI 1992-07-06 06:00:00 NR 7.90000 153.100 main 1212 1208 O_____________ jtwc_wp WP051992 7.90000 153.100 15 -1 14 282
1992188N07156 1992 47 WP MM ELI 1992-07-06 09:00:00 NR 8.04242 152.392 main 1210 1210 P_____________ WP051992 8.04242 152.392 15 -1 14 282
1992188N07156 1992 47 WP MM ELI 1992-07-06 12:00:00 NR 8.20000 151.700 main 1224 1223 O_____________ jtwc_wp WP051992 8.20000 151.700 15 -1 14 285
1992188N07156 1992 47 WP MM ELI 1992-07-06 15:00:00 NR 8.39236 151.042 main 1242 1239 P_____________ WP051992 8.39236 151.042 15 -1 13 287
1992188N07156 1992 47 WP MM ELI 1992-07-06 18:00:00 NR 8.60000 150.400 main 1244 1241 O_____________ jtwc_wp WP051992 8.60000 150.400 15 -1 14 288
1992188N07156 1992 47 WP MM ELI 1992-07-06 21:00:00 NR 8.79993 149.742 main 1247 1245 P_____________ WP051992 8.79993 149.742 17 -1 13 287
1992188N07156 1992 47 WP MM ELI 1992-07-07 00:00:00 NR 9.00000 149.100 main 1258 1256 O_____________ jtwc_wp WP051992 9.00000 149.100 20 -1 13 288
1992188N07156 1992 47 WP MM ELI 1992-07-07 03:00:00 NR 9.19982 148.500 main 1272 1271 P_____________ WP051992 9.19982 148.500 20 -1 13 289
1992188N07156 1992 47 WP MM ELI 1992-07-07 06:00:00 NR 9.40000 147.900 main 1289 1289 O_____________ jtwc_wp WP051992 9.40000 147.900 20 -1 13 288
1992188N07156 1992 47 WP MM ELI 1992-07-07 09:00:00 NR 9.59242 147.257 main 1311 1311 P_____________ WP051992 9.59242 147.257 20 -1 13 287
1992188N07156 1992 47 WP MM ELI 1992-07-07 12:00:00 NR 9.80000 146.600 main 1333 1333 O_____________ jtwc_wp WP051992 9.80000 146.600 20 -1 14 289
1992188N07156 1992 47 WP MM ELI 1992-07-07 15:00:00 NR 10.0274 145.950 main 1358 1358 P_____________ WP051992 10.0274 145.950 20 -1 14 291
1992188N07156 1992 47 WP MM ELI 1992-07-07 18:00:00 NR 10.3000 145.300 main 1396 1396 O_____________ jtwc_wp WP051992 10.3000 145.300 20 -1 14 295
1992188N07156 1992 47 WP MM ELI 1992-07-07 21:00:00 NR 10.6273 144.665 main 1438 1438 P_____________ WP051992 10.6273 144.665 20 -1 15 299
1992188N07156 1992 47 WP MM ELI 1992-07-08 00:00:00 TS 11.0000 144.000 1008 tokyo main 1495 1495 OO____________ jtwc_wp WP051992 11.0000 144.000 20 -1 11.0000 144.000 2 1008 0 0 0 17 294
1992188N07156 1992 47 WP MM ELI 1992-07-08 03:00:00 TS 11.3405 143.070 main 1543 1542 PP____________ WP051992 11.3848 143.280 20 -1 11.2518 142.651 2 1008 0 0 20 290
1992188N07156 1992 47 WP MM ELI 1992-07-08 06:00:00 TS 11.6714 142.071 1008 tokyo main 1551 1545 OO____________ jtwc_wp WP051992 11.8000 142.500 20 -1 11.5000 141.500 2 1008 0 0 0 20 290
1992188N07156 1992 47 WP MM ELI 1992-07-08 09:00:00 TS 12.0181 141.178 main 1549 1545 PP____________ WP051992 12.2872 141.680 20 -1 11.7491 140.675 2 1008 0 0 18 293
1992188N07156 1992 47 WP MM ELI 1992-07-08 12:00:00 TS 12.3500 140.400 1008 tokyo main 1560 1512 OO____________ jtwc_wp WP051992 12.7000 140.800 20 -1 12.0000 140.000 2 1008 0 0 0 17 289
1992188N07156 1992 47 WP MM ELI 1992-07-08 15:00:00 TS 12.5723 139.557 main 1512 1417 PP____________ WP051992 12.8948 139.864 20 -1 12.2498 139.250 2 1008 0 0 17 284
1992188N07156 1992 47 WP MM ELI 1992-07-08 18:00:00 TS 12.7500 138.700 1008 tokyo main 1418 1334 OO____________ jtwc_wp WP051992 13.0000 138.900 20 -1 12.5000 138.500 2 1008 0 0 0 17 283
1992188N07156 1992 47 WP MM ELI 1992-07-08 21:00:00 TS 12.9535 137.842 main 1324 1241 PP____________ WP051992 13.1572 137.950 22 -1 12.7499 137.735 2 1008 0 0 17 284
1992188N07156 1992 47 WP MM ELI 1992-07-09 00:00:00 TS 13.1500 137.000 1008 tokyo main 1243 1170 OO____________ jtwc_wp WP051992 13.3000 137.000 25 -1 13.0000 137.000 2 1008 0 0 0 16 284
1992188N07156 1992 47 WP MM ELI 1992-07-09 03:00:00 TS 13.3394 136.222 main 1160 1077 PP____________ WP051992 13.4146 136.057 27 -1 13.2642 136.387 2 1007 0 0 16 279
1992188N07156 1992 47 WP MM ELI 1992-07-09 06:00:00 TS 13.4000 135.344 1006 tokyo main 1067 962 OO_O__________ jtwc_wp WP051992 13.5000 135.100 30 -1 13.5000 135.700 2 1006 0 0 0 12.6000 134.900 TD 25 1000 19 271
1992188N07156 1992 47 WP MM ELI 1992-07-09 09:00:00 TS 13.3659 134.252 main 962 856 PP_P__________ WP051992 13.5424 134.092 30 -1 13.7031 134.715 2 1005 0 0 12.6356 134.040 TD 27 1000 20 270
1992188N07156 1992 47 WP MM ELI 1992-07-09 12:00:00 TS 13.3846 133.292 1004 tokyo main 856 773 OOOO__________ jtwc_wp WP051992 13.6000 133.100 30 -1 13.8000 133.700 2 1004 0 0 0 13.0000 133.000 1 29 1002 12.8000 133.200 TD 30 1000 17 274
1992188N07156 1992 47 WP MM ELI 1992-07-09 15:00:00 TS 13.4985 132.467 main 773 692 PPPP__________ WP051992 13.7345 132.185 32 -1 13.6914 132.957 2 1002 0 0 13.4005 132.246 1 29 1001 13.1697 132.393 TD 32 997 16 281
1992188N07156 1992 47 WP MM ELI 1992-07-09 18:00:00 TS 13.7000 131.650 1000 tokyo main 692 605 OOOO__________ jtwc_wp WP051992 13.9000 131.300 35 0 13.6000 132.200 2 1000 0 0 0 13.7000 131.500 1 29 1000 13.6000 131.600 TS 35 995 17 283
1992188N07156 1992 47 WP MM ELI 1992-07-09 21:00:00 TS 13.8886 130.786 main 605 522 PPPP__________ WP051992 14.0422 130.400 40 0 13.7329 131.173 2 998 0 0 13.8496 130.764 1 33 997 13.9297 130.807 TS 40 992 17 283
1992188N07156 1992 47 WP MM ELI 1992-07-10 00:00:00 TS 14.1000 129.900 40 996 tokyo main 522 455 OOOO__________ jtwc_wp WP051992 14.2000 129.500 45 0 14.0000 130.100 3 40 996 0 9 120 120 0 14.0000 130.000 2 38 995 14.2000 130.000 TS 45 990 18 286
1992188N07156 1992 47 WP MM ELI 1992-07-10 03:00:00 TS 14.3691 129.018 main 451 396 PPPP__________ WP051992 14.3847 128.600 50 0 14.3421 129.163 3 45 990 0 9 140 140 14.3350 129.150 2 43 992 14.4148 129.157 TS 47 987 18 288
1992188N07156 1992 47 WP MM ELI 1992-07-10 06:00:00 TS 14.6500 128.150 50 985 tokyo main 404 342 OOOO__________ jtwc_wp WP051992 14.6000 127.700 55 0 14.7000 128.300 4 50 985 0 9 160 160 0 14.7000 128.300 3 48 990 14.6000 128.300 STS 50 985 17 288
1992188N07156 1992 47 WP MM ELI 1992-07-10 09:00:00 TS 14.9074 127.345 main 331 272 PPPP__________ WP051992 14.8497 126.800 57 0 14.9866 127.522 4 52 982 0 9 180 180 14.9865 127.587 3 53 987 14.8069 127.472 STS 52 982 17 287
1992188N07156 1992 47 WP MM ELI 1992-07-10 12:00:00 TS 15.1250 126.500 55 980 tokyo main 263 201 OOOO__________ jtwc_wp WP051992 15.1000 125.900 60 0 15.2000 126.700 4 55 980 9 50 50 9 200 200 0 15.2000 126.800 3 58 985 15.0000 126.600 STS 55 980 18 282
1992188N07156 1992 47 WP MM ELI 1992-07-10 15:00:00 TS 15.2735 125.525 main 194 158 PPPP__________ WP051992 15.3071 125.000 62 0 15.3148 125.702 4 57 977 9 55 55 9 200 200 15.3150 125.759 3 58 982 15.1571 125.637 STS 57 980 20 278
1992188N07156 1992 47 WP MM ELI 1992-07-10 18:00:00 TS 15.4000 124.475 60 975 tokyo main 158 150 OOOO__________ jtwc_wp WP051992 15.5000 124.100 65 1 15.4000 124.600 4 60 975 9 60 60 9 200 200 0 15.4000 124.600 3 58 980 15.3000 124.600 STS 60 980 21 278
1992188N07156 1992 47 WP MM ELI 1992-07-10 21:00:00 TS 15.5474 123.389 main 150 54 PPPP__________ WP051992 15.7071 123.200 70 1 15.5276 123.435 4 65 970 9 70 70 9 220 220 15.5275 123.427 3 63 975 15.4275 123.492 STS 62 977 21 279
1992188N07156 1992 47 WP MM ELI 1992-07-11 00:00:00 TS 15.7250 122.325 70 965 tokyo main 46 0 OOOO__________ jtwc_wp WP051992 15.9000 122.300 75 1 15.7000 122.300 5 70 965 9 80 80 9 240 240 0 15.7000 122.300 4 68 970 15.6000 122.400 T 65 975 20 281
1992188N07156 1992 47 WP MM ELI 1992-07-11 03:00:00 TS 15.9394 121.361 main 0 0 PPPP__________ WP051992 16.0497 121.392 70 1 15.9193 121.312 5 65 970 9 65 65 9 240 240 15.9193 121.312 4 68 972 15.8693 121.427 T 62 977 19 285
1992188N07156 1992 47 WP MM ELI 1992-07-11 06:00:00 TS 16.2000 120.450 60 975 tokyo main 0 0 OOOO__________ jtwc_wp WP051992 16.2000 120.500 65 1 16.2000 120.400 4 60 975 9 50 50 9 240 240 0 16.2000 120.400 4 68 975 16.2000 120.500 STS 60 980 19 289
1992188N07156 1992 47 WP MM ELI 1992-07-11 09:00:00 TS 16.5384 119.535 main 39 39 PPPP__________ WP051992 16.3997 119.635 65 1 16.5796 119.486 4 60 975 9 50 50 9 240 240 16.5796 119.486 4 68 975 16.5948 119.536 STS 57 980 18 290
1992188N07156 1992 47 WP MM ELI 1992-07-11 12:00:00 TS 16.8250 118.650 60 975 tokyo main 129 129 OOOO__________ jtwc_wp WP051992 16.6000 118.800 65 1 16.9000 118.600 4 60 975 9 50 50 9 240 240 0 16.9000 118.600 4 68 975 16.9000 118.600 STS 55 980 17 283
1992188N07156 1992 47 WP MM ELI 1992-07-11 15:00:00 TS 16.9285 117.782 main 223 223 PPPP__________ WP051992 16.7573 117.977 65 1 17.0098 117.720 4 60 975 9 50 50 9 240 240 16.9948 117.719 4 68 975 16.9522 117.712 STS 55 980 16 274
1992188N07156 1992 47 WP MM ELI 1992-07-11 18:00:00 TS 16.9500 116.975 60 975 tokyo main 308 308 OOOO__________ jtwc_wp WP051992 16.9000 117.200 65 1 17.0000 116.900 4 60 975 9 50 50 9 240 240 0 17.0000 116.900 4 68 975 16.9000 116.900 STS 55 980 15 272
1992188N07156 1992 47 WP MM ELI 1992-07-11 21:00:00 TS 16.9759 116.243 main 389 389 PPPP__________ WP051992 17.0497 116.477 65 1 16.9346 116.170 4 57 977 9 50 50 9 240 240 17.0422 116.162 4 68 975 16.8772 116.162 STS 57 980 13 273
1992188N07156 1992 47 WP MM ELI 1992-07-12 00:00:00 TS 17.0250 115.575 55 980 tokyo main 451 451 OOOO__________ jtwc_wp WP051992 17.2000 115.800 65 1 16.9000 115.500 4 55 980 9 50 50 9 240 240 0 17.1000 115.500 4 68 975 16.9000 115.500 STS 60 980 13 277
1992188N07156 1992 47 WP MM ELI 1992-07-12 03:00:00 TS 17.1379 114.933 main 497 441 PPPP__________ WP051992 17.3422 115.142 65 1 17.0199 114.828 4 55 980 9 50 50 9 240 240 17.1772 114.885 4 68 975 17.0122 114.878 STS 60 980 12 283
1992188N07156 1992 47 WP MM ELI 1992-07-12 06:00:00 TS 17.3000 114.325 55 980 tokyo main 432 377 OOOO__________ jtwc_wp WP051992 17.5000 114.500 65 1 17.2000 114.200 4 55 980 9 50 50 9 240 240 0 17.3000 114.300 4 68 975 17.2000 114.300 STS 60 980 12 286
1992188N07156 1992 47 WP MM ELI 1992-07-12 09:00:00 TS 17.4754 113.728 main 367 310 PPPP__________ WP051992 17.6848 113.850 67 1 17.3273 113.620 4 52 982 9 9 210 210 17.4774 113.685 4 68 972 17.4122 113.757 STS 60 980 12 290
1992188N07156 1992 47 WP MM ELI 1992-07-12 12:00:00 TS 17.7000 113.150 50 985 tokyo main 310 243 OOOO__________ jtwc_wp WP051992 17.9000 113.200 70 1 17.5000 113.100 4 50 985 0 9 180 180 0 17.7000 113.100 4 68 970 17.7000 113.200 STS 60 980 12 295
1992188N07156 1992 47 WP MM ELI 1992-07-12 15:00:00 TS 17.9640 112.606 main 238 176 PPPP__________ WP051992 18.1348 112.550 70 1 17.7393 112.687 4 50 985 0 9 180 150 17.9044 112.622 4 68 970 18.0774 112.565 STS 62 977 12 299
1992188N07156 1992 47 WP MM ELI 1992-07-12 18:00:00 TS 18.3000 112.025 50 985 tokyo main 167 90 OOOO__________ jtwc_wp WP051992 18.4000 111.900 70 1 18.1000 112.200 4 50 985 0 3 180 120 0 18.2000 112.100 4 68 970 18.5000 111.900 T 65 975 14 302
1992188N07156 1992 47 WP MM ELI 1992-07-12 21:00:00 TS 18.7320 111.324 main 80 10 PPPP__________ WP051992 18.6923 111.250 70 1 18.6432 111.416 4 50 985 0 3 180 120 18.6853 111.373 4 68 970 18.9072 111.257 T 65 975 16 303
1992188N07156 1992 47 WP MM ELI 1992-07-13 00:00:00 TS 19.1750 110.600 50 985 tokyo main 10 0 OOOO__________ jtwc_wp WP051992 19.0000 110.600 70 1 19.2000 110.600 4 50 985 0 3 180 120 0 19.2000 110.600 4 68 970 19.3000 110.600 T 65 975 15 302
1992188N07156 1992 47 WP MM ELI 1992-07-13 03:00:00 TS 19.5402 109.955 main 0 0 PPPP__________ WP051992 19.2998 109.942 62 0 19.6091 110.042 4 47 987 0 3 180 120 19.5947 109.927 4 63 975 19.6573 109.907 T 62 977 14 299
1992188N07156 1992 47 WP MM ELI 1992-07-13 06:00:00 TS 19.8500 109.325 45 990 tokyo main 11 11 OOOO__________ jtwc_wp WP051992 19.6000 109.300 55 0 19.9000 109.500 3 45 990 0 3 180 120 0 19.9000 109.300 3 58 980 20.0000 109.200 STS 60 980 13 295
1992188N07156 1992 47 WP MM ELI 1992-07-13 09:00:00 TS 20.1186 108.662 main 68 68 PPPP__________ WP051992 19.8922 108.692 57 0 20.0953 108.757 3 45 990 0 3 135 105 20.1445 108.715 3 58 980 20.3424 108.485 STS 57 982 13 292
1992188N07156 1992 47 WP MM ELI 1992-07-13 12:00:00 TS 20.3500 108.000 45 990 tokyo main 91 39 OOOO__________ jtwc_wp WP051992 20.2000 108.100 60 0 20.2000 108.000 3 45 990 0 9 90 90 0 20.3000 108.100 3 58 980 20.7000 107.800 STS 55 985 13 290
1992188N07156 1992 47 WP MM ELI 1992-07-13 15:00:00 TS 20.5621 107.366 main 39 0 PPPP__________ WP051992 20.5349 107.485 57 0 20.2415 107.422 3 42 992 0 9 90 90 20.3498 107.379 3 53 982 21.1222 107.178 STS 47 987 13 288
1992188N07156 1992 47 WP MM ELI 1992-07-13 18:00:00 TS 20.7385 106.731 40 994 tokyo main 0 0 OOOO__________ jtwc_wp WP051992 20.9000 106.900 55 0 20.3000 106.800 3 40 994 0 9 90 90 0 20.4000 106.600 3 48 985 21.5000 106.600 TS 40 990 13 286
1992188N07156 1992 47 WP MM ELI 1992-07-13 21:00:00 TS 20.9137 106.030 main 0 0 PPPP__________ WP051992 21.2927 106.380 47 0 20.4849 105.960 3 995 0 9 20.5632 105.803 3 38 990 21.7429 106.045 TS 35 992 15 281
1992188N07156 1992 47 WP MM ELI 1992-07-14 00:00:00 TS 21.0286 105.200 996 tokyo main 0 0 OOOO__________ jtwc_wp WP051992 21.7000 105.900 40 0 20.7000 105.000 2 996 0 0 0 20.8000 105.000 1 29 995 21.9000 105.500 TD 30 995 19 269
1992188N07156 1992 47 WP MM ELI 1992-07-14 03:00:00 TS 20.8803 103.978 main 0 0 _P____________ WP051992 -1 20.8803 103.978 2 998 0 0 1 TD 21 269
1992188N07156 1992 47 WP MM ELI 1992-07-14 06:00:00 TS 21.0000 103.000 1000 tokyo main 0 0 _O____________ -1 21.0000 103.000 2 1000 0 0 0 16 274
1992188N07156 1992 47 WP MM ELI 1992-07-14 09:00:00 TS 20.9836 102.249 main 0 0 _P____________ -1 20.9836 102.249 2 1000 0 0 14 270
1992188N07156 1992 47 WP MM ELI 1992-07-14 12:00:00 TS 21.0000 101.500 1000 tokyo main 0 0 _O____________ -1 21.0000 101.500 2 1000 0 0 0 16 278
1992188N07156 1992 47 WP MM ELI 1992-07-14 15:00:00 TS 21.1945 100.564 main 0 0 _P____________ -1 21.1945 100.564 2 1002 0 0 19 285
1992188N07156 1992 47 NI BB ELI 1992-07-14 18:00:00 TS 21.5000 99.5000 main 0 _O____________ -1 21.5000 99.5000 2 1004 0 0 0 21 287

デジタル台風データ・検索

IBTrACS Databaseについて

本データベースは、米国NOAAが公開する1842年以降の世界の熱帯低気圧のベストトラックデータアーカイブInternational Best Track Archive for Climate Stewardship (IBTrACS)を、ウェブで閲覧しやすい形式に変換したものです。

最終更新日:2021-10-21